Time;durP1;ratioP1;P1;durP2;ratioP2;P2;SDS_P1;SDS_P2;PMS_P1;PMS_P2;Temp;Humidity;BMP_temperature;BMP_pressure;BME280_temperature;BME280_humidity;BME280_pressure;Samples;Min_cycle;Max_cycle;Signal;HPM_P1;HPM_P2
2022/11/24 00:01:23;;;;;;;18.58;11.75;;;179.30;2252.80;;;;;;4973080;28;20134;-69
2022/11/24 00:03:59;;;;;;;21.07;12.67;;;179.30;2252.80;;;;;;4956186;28;20031;-69
2022/11/24 00:06:30;;;;;;;18.75;11.23;;;179.30;2252.80;;;;;;4973504;28;20260;-69
2022/11/24 00:08:59;;;;;;;17.15;10.82;;;179.30;2252.80;;;;;;4973522;28;20071;-67
2022/11/24 00:11:31;;;;;;;16.77;10.70;;;179.40;2252.80;;;;;;4973426;28;20027;-69
2022/11/24 00:14:00;;;;;;;14.65;9.93;;;179.40;2252.80;;;;;;4972340;28;20035;-68
2022/11/24 00:16:32;;;;;;;15.85;10.45;;;179.40;2252.80;;;;;;4973168;28;20031;-68
2022/11/24 00:19:02;;;;;;;15.30;9.63;;;179.30;2252.80;;;;;;4973271;28;20023;-69
2022/11/24 00:21:30;;;;;;;16.50;9.95;;;179.20;2252.80;;;;;;4973539;28;20042;-68
2022/11/24 00:23:59;;;;;;;17.10;10.18;;;179.20;2252.80;;;;;;4973566;28;20031;-69
2022/11/24 00:26:29;;;;;;;16.77;10.20;;;179.20;2252.80;;;;;;4973329;28;20051;-67
2022/11/24 00:28:59;;;;;;;14.50;9.25;;;179.20;2252.80;;;;;;4951316;28;20066;-68
2022/11/24 00:31:33;;;;;;;15.95;10.07;;;179.20;2252.80;;;;;;4962508;28;20033;-67
2022/11/24 00:34:03;;;;;;;16.35;10.88;;;179.20;2252.80;;;;;;4973162;28;20031;-68
2022/11/24 00:36:36;;;;;;;16.42;9.82;;;179.40;2252.80;;;;;;4955424;28;20031;-70
2022/11/24 00:39:06;;;;;;;15.63;10.00;;;179.20;2252.80;;;;;;4972786;28;20037;-68
2022/11/24 00:41:34;;;;;;;15.65;9.55;;;179.20;2252.80;;;;;;4972298;28;20031;-69
2022/11/24 00:44:02;;;;;;;13.93;9.02;;;154.50;2252.80;;;;;;4972477;28;20033;-68
2022/11/24 00:46:28;;;;;;;15.70;9.85;;;154.40;2252.80;;;;;;4971500;28;20031;-67
2022/11/24 00:48:55;;;;;;;16.40;9.63;;;154.50;2252.80;;;;;;4972115;28;20023;-69
2022/11/24 00:51:25;;;;;;;13.52;8.98;;;154.40;2252.80;;;;;;4977792;28;20037;-68
2022/11/24 00:53:52;;;;;;;15.52;9.85;;;154.40;2252.80;;;;;;4979670;28;20019;-68
2022/11/24 00:56:21;;;;;;;14.23;9.23;;;154.40;2252.80;;;;;;4972714;28;20058;-65
2022/11/24 00:58:51;;;;;;;15.98;9.15;;;154.50;2252.80;;;;;;4972367;28;20034;-68
2022/11/24 01:01:25;;;;;;;14.65;9.23;;;179.20;2252.80;;;;;;4972735;28;20465;-67
2022/11/24 01:03:53;;;;;;;13.60;8.32;;;179.20;2252.80;;;;;;4971796;28;20473;-68
2022/11/24 01:06:23;;;;;;;13.27;8.20;;;154.50;2252.80;;;;;;4972448;28;20050;-67
2022/11/24 01:08:49;;;;;;;14.85;8.98;;;154.50;2252.80;;;;;;4972722;28;20031;-67
2022/11/24 01:11:20;;;;;;;13.27;8.82;;;179.20;2252.80;;;;;;4973107;28;20030;-67
2022/11/24 01:13:51;;;;;;;13.63;8.60;;;179.40;2252.80;;;;;;4972735;28;20491;-68
2022/11/24 01:16:33;;;;;;;13.50;8.55;;;179.30;2252.80;;;;;;4973074;28;20114;-68
2022/11/24 01:19:02;;;;;;;12.90;8.85;;;179.40;2252.80;;;;;;4973161;28;20031;-68
2022/11/24 01:21:28;;;;;;;13.43;9.27;;;179.30;2252.80;;;;;;4971610;28;20034;-66
2022/11/24 01:23:56;;;;;;;12.93;8.70;;;179.30;2252.80;;;;;;4954373;28;20046;-68
2022/11/24 01:26:23;;;;;;;12.55;8.48;;;179.30;2252.80;;;;;;4972719;28;20035;-68
2022/11/24 01:28:56;;;;;;;14.18;8.95;;;179.30;2252.80;;;;;;4972404;28;20062;-68
2022/11/24 01:31:24;;;;;;;13.27;8.90;;;179.30;2252.80;;;;;;4972722;28;20091;-65
2022/11/24 01:33:51;;;;;;;13.18;8.80;;;179.20;2252.80;;;;;;4974062;28;20498;-68
2022/11/24 01:36:17;;;;;;;13.07;8.77;;;179.30;2252.80;;;;;;4974502;28;20041;-68
2022/11/24 01:38:43;;;;;;;13.35;8.23;;;179.30;2252.80;;;;;;4976384;28;20031;-68
2022/11/24 01:41:21;;;;;;;12.85;8.48;;;179.20;2252.80;;;;;;4989606;28;20026;-67
2022/11/24 01:43:48;;;;;;;13.43;8.88;;;179.20;2252.80;;;;;;4977935;28;20038;-68
2022/11/24 01:46:21;;;;;;;14.23;9.35;;;179.20;2252.80;;;;;;4976122;28;20541;-68
2022/11/24 01:49:08;;;;;;;14.38;8.95;;;179.20;2252.80;;;;;;4976626;28;20030;-67
2022/11/24 01:51:54;;;;;;;12.65;8.82;;;179.30;2252.80;;;;;;4976433;28;20054;-65
2022/11/24 01:54:27;;;;;;;14.15;9.15;;;179.30;2252.80;;;;;;4975038;28;20066;-66
2022/11/24 01:57:01;;;;;;;12.43;8.55;;;179.30;2252.80;;;;;;4974851;28;20035;-67
2022/11/24 01:59:29;;;;;;;13.13;8.80;;;179.30;2252.80;;;;;;4976408;28;20019;-66
2022/11/24 02:01:56;;;;;;;13.18;8.55;;;179.30;2252.80;;;;;;4975904;28;20027;-67
2022/11/24 02:04:28;;;;;;;12.63;8.50;;;179.30;2252.80;;;;;;4976109;28;20022;-69
2022/11/24 02:06:57;;;;;;;13.45;8.30;;;179.30;2252.80;;;;;;4975717;28;20030;-68
2022/11/24 02:09:45;;;;;;;12.27;8.60;;;179.20;2252.80;;;;;;4975779;28;20051;-65
2022/11/24 02:12:12;;;;;;;13.20;8.23;;;179.20;2252.80;;;;;;4975580;28;20022;-68
2022/11/24 02:14:40;;;;;;;10.23;7.57;;;154.50;2252.80;;;;;;4975750;28;20022;-63
2022/11/24 02:17:09;;;;;;;12.88;8.43;;;154.40;2252.80;;;;;;4975731;28;20034;-67
2022/11/24 02:19:53;;;;;;;11.40;8.13;;;154.40;2252.80;;;;;;4975591;28;20023;-66
2022/11/24 02:22:37;;;;;;;12.00;7.85;;;154.50;2252.80;;;;;;4975768;28;20034;-66
2022/11/24 02:25:14;;;;;;;11.68;8.25;;;154.50;2252.80;;;;;;4974504;28;20035;-68
2022/11/24 02:27:43;;;;;;;11.95;8.20;;;154.50;2252.80;;;;;;4974954;28;20037;-66
2022/11/24 02:30:11;;;;;;;11.75;8.05;;;154.50;2252.80;;;;;;4975282;28;20122;-66
2022/11/24 02:32:40;;;;;;;12.68;8.25;;;154.50;2252.80;;;;;;4975196;28;20030;-65
2022/11/24 02:35:08;;;;;;;11.95;8.20;;;154.50;2252.80;;;;;;4975560;28;20035;-66
2022/11/24 02:37:36;;;;;;;12.48;8.15;;;179.20;2252.80;;;;;;4975335;28;20050;-69
2022/11/24 02:40:04;;;;;;;11.85;7.90;;;154.50;2252.80;;;;;;4975228;28;20019;-68
2022/11/24 02:42:37;;;;;;;12.23;7.57;;;179.20;2252.80;;;;;;4973521;28;20761;-68
2022/11/24 02:45:04;;;;;;;12.35;7.95;;;154.50;2252.80;;;;;;4974153;28;20034;-69
2022/11/24 02:47:31;;;;;;;11.57;7.68;;;179.20;2252.80;;;;;;4975070;28;20105;-68
2022/11/24 02:49:57;;;;;;;10.57;7.53;;;154.50;2252.80;;;;;;4974898;28;20038;-67
2022/11/24 02:52:24;;;;;;;10.40;7.60;;;154.40;2252.80;;;;;;4974975;28;20027;-69
2022/11/24 02:54:51;;;;;;;9.75;7.18;;;154.40;2252.80;;;;;;4974844;28;20051;-70
2022/11/24 02:57:21;;;;;;;10.40;7.22;;;154.50;2252.80;;;;;;4975115;28;20034;-70
2022/11/24 02:59:48;;;;;;;10.38;6.63;;;154.40;2252.80;;;;;;4973650;28;20042;-67
2022/11/24 03:02:15;;;;;;;10.45;7.30;;;154.50;2252.80;;;;;;4974827;28;20110;-68
2022/11/24 03:04:43;;;;;;;10.38;7.10;;;154.40;2252.80;;;;;;4974874;28;20029;-67
2022/11/24 03:07:09;;;;;;;11.95;7.13;;;154.50;2252.80;;;;;;4974971;28;20019;-68
2022/11/24 03:09:37;;;;;;;12.02;7.80;;;154.40;2252.80;;;;;;4974945;28;20130;-67
2022/11/24 03:12:04;;;;;;;11.98;7.60;;;154.40;2252.80;;;;;;4975042;28;20034;-69
2022/11/24 03:14:32;;;;;;;10.00;6.53;;;154.50;2252.80;;;;;;4973445;28;20038;-66
2022/11/24 03:16:58;;;;;;;10.25;7.20;;;154.50;2099.20;;;;;;4974354;28;20027;-66
2022/11/24 03:19:24;;;;;;;10.48;6.90;;;154.40;2252.80;;;;;;4974748;28;20660;-67
2022/11/24 03:21:50;;;;;;;11.65;6.68;;;154.40;2252.80;;;;;;4974591;28;20070;-68
2022/11/24 03:24:17;;;;;;;11.10;7.20;;;154.50;2252.80;;;;;;4974769;28;20047;-69
2022/11/24 03:26:43;;;;;;;9.60;6.75;;;154.40;2252.80;;;;;;4973204;28;20037;-68
2022/11/24 03:29:10;;;;;;;11.40;7.18;;;154.40;1971.20;;;;;;4954864;29;20043;-66
2022/11/24 03:31:36;;;;;;;10.23;7.05;;;154.40;2252.80;;;;;;4972601;28;20075;-69
2022/11/24 03:34:04;;;;;;;10.60;6.57;;;154.40;2252.80;;;;;;4974311;28;20049;-69
2022/11/24 03:36:31;;;;;;;10.23;7.18;;;154.40;2252.80;;;;;;4974396;28;20037;-68
2022/11/24 03:38:57;;;;;;;10.98;7.03;;;154.40;2252.80;;;;;;4973765;28;20035;-68
2022/11/24 03:41:24;;;;;;;10.40;7.40;;;154.50;2252.80;;;;;;4956744;28;20088;-70
2022/11/24 03:43:51;;;;;;;11.07;7.22;;;154.50;2252.80;;;;;;4974210;28;20031;-68
2022/11/24 03:46:17;;;;;;;11.50;7.30;;;154.50;2252.80;;;;;;4974193;28;20023;-69
2022/11/24 03:48:46;;;;;;;10.35;7.43;;;154.50;2176.00;;;;;;4973244;28;20385;-68
2022/11/24 03:51:17;;;;;;;10.85;7.45;;;179.20;2252.80;;;;;;4973841;28;20033;-69
2022/11/24 03:53:48;;;;;;;10.30;7.30;;;179.20;2252.80;;;;;;4973812;28;20062;-69
2022/11/24 03:56:19;;;;;;;10.45;6.70;;;179.20;2252.80;;;;;;4972681;28;20050;-69
2022/11/24 03:58:50;;;;;;;10.70;7.30;;;179.20;2252.80;;;;;;4956099;28;20130;-69
2022/11/24 04:01:20;;;;;;;10.30;6.95;;;154.50;2252.80;;;;;;4955203;28;20039;-68
2022/11/24 04:03:47;;;;;;;12.50;7.00;;;154.50;2252.80;;;;;;4973758;28;20055;-69
2022/11/24 04:06:16;;;;;;;9.73;6.55;;;154.50;2252.80;;;;;;4973328;28;20026;-70
2022/11/24 04:08:47;;;;;;;10.77;6.97;;;154.50;2252.80;;;;;;4959507;28;20043;-68
2022/11/24 04:14:06;;;;;;;10.95;6.90;;;154.50;2252.80;;;;;;4954368;29;20091;-69
2022/11/24 04:16:35;;;;;;;11.07;7.22;;;154.50;2252.80;;;;;;4955334;28;20034;-69
2022/11/24 04:19:07;;;;;;;10.73;6.82;;;179.20;2252.80;;;;;;4970061;28;20038;-69
2022/11/24 04:21:39;;;;;;;12.48;7.57;;;179.20;2073.60;;;;;;4973625;28;20114;-68
2022/11/24 04:24:09;;;;;;;11.80;6.90;;;179.20;2252.80;;;;;;4973629;28;20030;-67
2022/11/24 04:26:39;;;;;;;10.70;7.05;;;179.20;2252.80;;;;;;4973114;28;20023;-70
2022/11/24 04:29:11;;;;;;;10.65;7.18;;;179.20;2252.80;;;;;;4954112;29;20569;-70
2022/11/24 04:31:43;;;;;;;10.32;6.38;;;179.20;2252.80;;;;;;4953390;29;20043;-69
2022/11/24 04:34:17;;;;;;;46.70;24.35;;;179.20;2252.80;;;;;;4962244;28;20026;-70
2022/11/24 04:36:47;;;;;;;22.37;13.47;;;179.20;2252.80;;;;;;4973359;28;20049;-70
2022/11/24 04:39:17;;;;;;;13.75;8.02;;;179.20;2252.80;;;;;;4973326;28;20857;-69
2022/11/24 04:41:47;;;;;;;10.27;6.85;;;179.20;2252.80;;;;;;4973121;28;20034;-67
2022/11/24 04:44:17;;;;;;;12.93;7.60;;;179.20;2252.80;;;;;;4973054;28;20110;-70
2022/11/24 04:46:45;;;;;;;9.05;6.25;;;154.50;2252.80;;;;;;4972960;28;20382;-70
2022/11/24 04:49:13;;;;;;;8.70;5.90;;;154.50;2252.80;;;;;;4971504;28;20048;-69
2022/11/24 04:51:45;;;;;;;19.08;12.80;;;154.50;2252.80;;;;;;4973208;28;20082;-70
2022/11/24 04:54:12;;;;;;;14.15;8.52;;;179.20;2252.80;;;;;;4973364;28;20054;-70
2022/11/24 04:56:42;;;;;;;19.42;13.57;;;179.30;2252.80;;;;;;4972939;28;20066;-70
2022/11/24 04:59:13;;;;;;;13.55;8.95;;;179.30;2252.80;;;;;;4973312;28;20030;-70
2022/11/24 05:01:46;;;;;;;20.88;11.57;;;179.30;2252.80;;;;;;4973119;28;20389;-66
2022/11/24 05:04:17;;;;;;;8.93;5.93;;;179.40;2252.80;;;;;;4973004;28;20461;-69
2022/11/24 05:06:47;;;;;;;12.70;8.88;;;179.30;2252.80;;;;;;4971747;28;20082;-68
2022/11/24 05:09:15;;;;;;;15.13;11.15;;;179.30;2252.80;;;;;;4976588;28;20117;-70
2022/11/24 05:11:47;;;;;;;18.02;9.43;;;179.30;2252.80;;;;;;4977107;28;20151;-69
2022/11/24 05:14:16;;;;;;;12.80;7.85;;;179.40;2252.80;;;;;;4977007;28;20027;-69
2022/11/24 05:16:47;;;;;;;46.70;19.50;;;179.40;2252.80;;;;;;4976886;28;20034;-69
2022/11/24 05:19:15;;;;;;;36.85;15.00;;;179.40;2252.80;;;;;;4976723;28;20101;-68
2022/11/24 05:21:46;;;;;;;11.27;6.20;;;179.30;2252.80;;;;;;4976607;28;20612;-69
2022/11/24 05:24:17;;;;;;;13.98;7.70;;;179.40;2252.80;;;;;;4975553;28;20023;-68
2022/11/24 05:26:46;;;;;;;8.43;5.40;;;179.40;2252.80;;;;;;4971601;28;20182;-67
2022/11/24 05:29:17;;;;;;;21.50;9.13;;;179.40;2252.80;;;;;;4957390;29;20102;-67
2022/11/24 05:31:43;;;;;;;27.52;13.93;;;179.40;2252.80;;;;;;4974505;28;20040;-65
2022/11/24 05:34:09;;;;;;;17.33;9.25;;;179.40;2252.80;;;;;;4960510;28;20038;-68
2022/11/24 05:36:55;;;;;;;11.10;6.85;;;179.50;2252.80;;;;;;4969111;28;20141;-68
2022/11/24 05:39:21;;;;;;;9.60;6.35;;;179.40;2150.40;;;;;;4958595;28;20035;-67
2022/11/24 05:41:47;;;;;;;12.93;7.00;;;179.40;2252.80;;;;;;4958593;28;20121;-73
2022/11/24 05:44:15;;;;;;;15.07;8.73;;;179.40;2227.20;;;;;;4976256;28;20035;-68
2022/11/24 05:46:41;;;;;;;11.90;7.20;;;179.30;2252.80;;;;;;4975939;28;20477;-68
2022/11/24 05:49:12;;;;;;;13.93;7.82;;;179.30;2252.80;;;;;;4975979;28;20469;-68
2022/11/24 05:51:40;;;;;;;16.35;8.15;;;179.30;2252.80;;;;;;4976345;28;20019;-66
2022/11/24 05:54:10;;;;;;;11.95;6.95;;;179.30;2252.80;;;;;;4976129;28;20114;-69
2022/11/24 05:56:42;;;;;;;18.58;9.50;;;179.20;2252.80;;;;;;4974995;28;20381;-67
2022/11/24 05:59:13;;;;;;;13.48;9.07;;;179.20;2252.80;;;;;;4974839;28;20026;-68
2022/11/24 06:01:39;;;;;;;16.58;8.70;;;179.20;2252.80;;;;;;4975339;28;20063;-66
2022/11/24 06:04:08;;;;;;;8.98;5.28;;;179.30;2252.80;;;;;;4975605;28;20065;-66
2022/11/24 06:06:35;;;;;;;8.38;5.15;;;179.30;2252.80;;;;;;4971112;28;20386;-67
2022/11/24 06:09:03;;;;;;;16.50;8.40;;;179.30;2252.80;;;;;;4956647;29;20102;-67
2022/11/24 06:11:31;;;;;;;8.57;5.68;;;179.30;2252.80;;;;;;4967824;28;20508;-67
2022/11/24 06:13:58;;;;;;;12.70;6.93;;;179.30;2252.80;;;;;;4974099;28;20126;-68
2022/11/24 06:16:32;;;;;;;23.95;12.18;;;179.30;2252.80;;;;;;4975373;28;20039;-67
2022/11/24 06:19:03;;;;;;;17.50;8.50;;;179.30;2252.80;;;;;;4974659;28;20031;-68
2022/11/24 06:21:35;;;;;;;16.42;8.75;;;179.30;2252.80;;;;;;4974863;28;20035;-68
2022/11/24 06:24:05;;;;;;;12.07;7.57;;;179.30;2252.80;;;;;;4975047;28;20022;-68
2022/11/24 06:26:39;;;;;;;20.17;10.90;;;179.30;2252.80;;;;;;4974200;28;20575;-68
2022/11/24 06:29:11;;;;;;;12.40;7.83;;;179.40;2252.80;;;;;;4973709;28;20039;-68
2022/11/24 06:31:41;;;;;;;16.60;9.88;;;179.30;2252.80;;;;;;4975334;28;20058;-68
2022/11/24 06:34:10;;;;;;;32.20;14.55;;;179.50;2252.80;;;;;;4974545;28;20027;-68
2022/11/24 06:36:41;;;;;;;11.63;7.07;;;179.50;2252.80;;;;;;4974562;28;20034;-67
2022/11/24 06:39:12;;;;;;;16.48;8.80;;;179.60;1920.00;;;;;;4975364;28;20444;-68
2022/11/24 06:41:39;;;;;;;14.88;7.28;;;179.60;2252.80;;;;;;4974289;28;20051;-68
2022/11/24 06:44:05;;;;;;;19.17;10.02;;;179.60;2252.80;;;;;;4970122;28;20078;-69
2022/11/24 06:46:36;;;;;;;12.95;7.75;;;179.60;2252.80;;;;;;4958171;28;20086;-69
2022/11/24 06:49:06;;;;;;;13.32;7.57;;;179.60;2252.80;;;;;;4975495;28;20657;-69
2022/11/24 06:51:34;;;;;;;21.35;10.98;;;179.70;2252.80;;;;;;4975289;28;20022;-68
2022/11/24 06:54:09;;;;;;;26.10;13.93;;;179.70;2252.80;;;;;;4975164;28;20461;-69
2022/11/24 06:56:37;;;;;;;;;;;179.90;2252.80;;;;;;4956424;29;20051;-70
2022/11/24 06:59:14;;;;;;;15.80;9.05;;;204.80;2252.80;;;;;;4955771;29;19910;-67
2022/11/24 07:01:44;;;;;;;21.15;11.18;;;180.00;2252.80;;;;;;4954254;28;20043;-68
2022/11/24 07:04:10;;;;;;;24.50;12.82;;;180.10;2252.80;;;;;;4950577;29;20023;-68
2022/11/24 07:06:40;;;;;;;66.72;42.75;;;204.80;2252.80;;;;;;4947126;29;20545;-67
2022/11/24 07:09:10;;;;;;;37.70;24.20;;;204.80;2252.80;;;;;;4955486;29;20046;-68
2022/11/24 07:11:38;;;;;;;16.08;12.15;;;204.90;2252.80;;;;;;4946745;29;20061;-68
2022/11/24 07:14:06;;;;;;;16.83;10.15;;;204.90;2252.80;;;;;;4938044;29;20362;-68
2022/11/24 07:16:32;;;;;;;18.00;11.32;;;204.90;2252.80;;;;;;4954618;29;20087;-68
2022/11/24 07:19:01;;;;;;;32.22;15.75;;;205.00;2252.80;;;;;;4954432;28;20028;-68
2022/11/24 07:21:30;;;;;;;13.60;8.90;;;205.10;2252.80;;;;;;4955433;29;20035;-68
2022/11/24 07:23:56;;;;;;;22.52;12.45;;;205.10;2252.80;;;;;;4954833;29;20042;-66
2022/11/24 07:26:25;;;;;;;20.90;11.90;;;205.10;2252.80;;;;;;4955527;28;20033;-66
2022/11/24 07:28:53;;;;;;;14.57;8.30;;;205.10;2252.80;;;;;;4955269;29;20039;-66
2022/11/24 07:31:25;;;;;;;19.02;9.77;;;205.10;2252.80;;;;;;4947606;28;20485;-67
2022/11/24 07:33:55;;;;;;;14.80;9.13;;;205.10;2252.80;;;;;;4937119;29;20028;-66
2022/11/24 07:36:23;;;;;;;13.15;7.32;;;205.10;2252.80;;;;;;4954802;29;20078;-68
2022/11/24 07:38:51;;;;;;;22.35;11.32;;;205.10;2252.80;;;;;;4955012;29;20033;-68
2022/11/24 07:41:19;;;;;;;16.83;9.15;;;205.20;2252.80;;;;;;4954793;29;20430;-65
2022/11/24 07:43:48;;;;;;;12.77;7.75;;;205.10;2252.80;;;;;;4954666;29;20031;-67
2022/11/24 07:46:18;;;;;;;17.15;9.82;;;205.20;2252.80;;;;;;4936932;29;20122;-68
2022/11/24 07:48:45;;;;;;;28.63;12.60;;;205.20;2252.80;;;;;;4953258;28;20043;-68
2022/11/24 07:51:14;;;;;;;18.17;9.40;;;205.30;2252.80;;;;;;4954453;29;20024;-68
2022/11/24 07:53:40;;;;;;;14.30;8.50;;;205.40;2252.80;;;;;;4954473;29;20211;-68
2022/11/24 07:56:08;;;;;;;21.73;11.63;;;205.50;2252.80;;;;;;4970891;28;20047;-69
2022/11/24 07:58:37;;;;;;;17.80;10.05;;;205.60;2252.80;;;;;;4973709;28;20113;-68
2022/11/24 08:01:17;;;;;;;11.57;6.57;;;205.70;2252.80;;;;;;4973420;28;20065;-67
2022/11/24 08:03:47;;;;;;;19.27;10.20;;;230.40;2252.80;;;;;;4956185;28;20489;-68
2022/11/24 08:06:13;;;;;;;15.00;7.78;;;230.50;2252.80;;;;;;4972495;28;20082;-66
2022/11/24 08:08:39;;;;;;;23.52;11.55;;;230.60;2252.80;;;;;;4973204;28;20037;-68
2022/11/24 08:11:10;;;;;;;18.98;8.55;;;230.80;2252.80;;;;;;4973665;28;20113;-68
2022/11/24 08:13:42;;;;;;;19.67;9.48;;;231.10;2252.80;;;;;;4973128;28;20043;-68
2022/11/24 08:16:16;;;;;;;11.52;7.07;;;231.20;2252.80;;;;;;4973006;28;20085;-68
2022/11/24 08:18:50;;;;;;;28.25;13.45;;;256.50;2252.80;;;;;;4973547;28;20053;-67
2022/11/24 08:21:21;;;;;;;14.73;8.77;;;256.30;2252.80;;;;;;4973593;28;20170;-67
2022/11/24 08:23:54;;;;;;;15.70;7.90;;;256.20;2252.80;;;;;;4972589;28;20027;-68
2022/11/24 08:26:20;;;;;;;21.38;11.15;;;256.00;2252.80;;;;;;4976824;28;20084;-67
2022/11/24 08:28:47;;;;;;;17.98;10.30;;;256.10;2252.80;;;;;;4968217;28;20513;-67
2022/11/24 08:31:17;;;;;;;20.58;12.15;;;256.10;2252.80;;;;;;4981728;28;20718;-68
2022/11/24 08:33:43;;;;;;;24.40;12.90;;;256.10;2252.80;;;;;;4991842;28;20022;-69
2022/11/24 08:36:17;;;;;;;16.90;9.80;;;256.10;2252.80;;;;;;4973028;28;20097;-68
2022/11/24 08:38:44;;;;;;;44.07;20.17;;;231.10;2252.80;;;;;;4991418;28;20046;-67
2022/11/24 08:41:13;;;;;;;18.90;10.02;;;231.10;2252.80;;;;;;4983821;28;20473;-68
2022/11/24 08:43:43;;;;;;;52.47;21.45;;;256.00;2252.80;;;;;;4975707;28;20432;-69
2022/11/24 08:46:12;;;;;;;37.67;16.63;;;256.10;2252.80;;;;;;4972927;28;20033;-68
2022/11/24 08:48:38;;;;;;;58.65;26.33;;;256.00;2252.80;;;;;;4991708;28;20018;-67
2022/11/24 08:51:12;;;;;;;32.75;16.75;;;256.20;2252.80;;;;;;4991404;28;20035;-67
2022/11/24 08:53:41;;;;;;;29.35;14.65;;;256.20;2252.80;;;;;;4991382;28;20080;-68
2022/11/24 08:56:08;;;;;;;21.07;11.90;;;256.30;2252.80;;;;;;4986834;28;20064;-69
2022/11/24 08:58:40;;;;;;;24.33;15.65;;;281.80;2278.40;;;;;;4976592;28;20469;-68
2022/11/24 09:01:15;;;;;;;13.88;9.25;;;307.40;2304.00;;;;;;4972249;28;20082;-68
2022/11/24 09:03:44;;;;;;;17.10;10.48;;;307.50;2304.00;;;;;;4972570;28;20088;-68
2022/11/24 09:06:10;;;;;;;12.55;8.93;;;307.90;2304.00;;;;;;4972623;28;20034;-67
2022/11/24 09:08:39;;;;;;;12.23;8.75;;;384.60;2329.60;;;;;;4972688;28;20031;-68
2022/11/24 09:11:18;;;;;;;14.40;10.48;;;435.80;2124.80;;;;;;4973251;28;20035;-67
2022/11/24 09:13:46;;;;;;;;;;;486.50;1945.60;;;;;;4972106;28;20034;-70
2022/11/24 09:16:24;;;;;;;11.07;8.68;;;487.20;1766.40;;;;;;4971747;28;20265;-68
2022/11/24 09:19:06;;;;;;;9.57;7.55;;;461.20;1817.60;;;;;;4954771;28;20134;-70
2022/11/24 09:21:39;;;;;;;8.88;6.25;;;435.80;1945.60;;;;;;4960942;28;20034;-68
2022/11/24 09:24:09;;;;;;;9.82;7.78;;;435.70;2048.00;;;;;;4973148;28;20095;-68
2022/11/24 09:26:42;;;;;;;9.95;7.25;;;435.40;2048.00;;;;;;4972840;28;20442;-66
2022/11/24 09:29:12;;;;;;;15.68;11.50;;;410.40;2048.00;;;;;;4972362;28;20042;-66
2022/11/24 09:31:41;;;;;;;11.52;7.45;;;384.90;2176.00;;;;;;4971878;28;20076;-66
2022/11/24 09:34:14;;;;;;;11.52;7.88;;;384.60;2227.20;;;;;;4972625;28;20030;-69
2022/11/24 09:36:45;;;;;;;9.63;6.53;;;384.60;2329.60;;;;;;4971808;28;20034;-68
2022/11/24 09:39:15;;;;;;;12.90;7.75;;;409.90;2278.40;;;;;;4972618;28;20532;-68
2022/11/24 09:42:14;;;;;;;10.60;7.65;;;410.20;2227.20;;;;;;4972488;28;20027;-68
2022/11/24 09:45:07;;;;;;;8.73;6.03;;;460.90;1971.20;;;;;;4972550;28;20023;-67
2022/11/24 09:47:49;;;;;;;9.60;6.90;;;486.50;1817.60;;;;;;4971565;28;20722;-68
2022/11/24 09:50:22;;;;;;;12.85;6.75;;;486.40;1766.40;;;;;;4972169;28;20035;-69
2022/11/24 09:53:03;;;;;;;10.05;7.13;;;486.70;1817.60;;;;;;4972609;28;20904;-70
2022/11/24 09:55:30;;;;;;;6.20;4.95;;;512.20;1664.00;;;;;;4974649;28;20089;-68
2022/11/24 09:58:16;;;;;;;7.85;5.40;;;512.00;1612.80;;;;;;4976056;28;20437;-69
2022/11/24 10:00:50;;;;;;;9.65;6.40;;;512.30;1612.80;;;;;;4970862;28;20027;-69
2022/11/24 10:03:22;;;;;;;;;;;538.00;1510.40;;;;;;4968679;28;20555;-70
2022/11/24 10:05:51;;;;;;;7.65;6.20;;;563.40;1510.40;;;;;;4973850;28;20375;-69
2022/11/24 10:08:20;;;;;;;9.75;6.88;;;614.40;1356.80;;;;;;4971110;28;20111;-70
2022/11/24 10:10:56;;;;;;;11.25;8.23;;;640.10;1203.20;;;;;;4964981;28;20330;-70
2022/11/24 10:14:07;;;;;;;7.57;6.30;;;615.00;1228.80;;;;;;4972680;28;20030;-70
2022/11/24 10:16:56;;;;;;;9.55;6.68;;;563.20;1408.00;;;;;;4973782;28;20388;-67
2022/11/24 10:19:29;;;;;;;10.57;6.93;;;512.20;1484.80;;;;;;4975492;28;20035;-69
2022/11/24 10:21:57;;;;;;;;;;;537.90;1484.80;;;;;;4975777;28;20027;-67
2022/11/24 10:24:50;;;;;;;9.27;7.18;;;589.30;1356.80;;;;;;4958332;28;19960;-69
2022/11/24 10:27:20;;;;;;;;;;;640.30;1203.20;;;;;;4975817;28;20035;-66
2022/11/24 10:29:53;;;;;;;11.00;8.48;;;614.50;1228.80;;;;;;4975209;28;19925;-68
2022/11/24 10:32:41;;;;;;;10.65;8.98;;;615.30;1203.20;;;;;;4975489;28;20086;-66
2022/11/24 10:35:20;;;;;;;33.72;26.33;;;640.20;1126.40;;;;;;4980647;28;20472;-67
2022/11/24 10:37:52;;;;;;;40.97;31.60;;;640.40;1152.00;;;;;;4953970;29;20035;-70
2022/11/24 10:40:23;;;;;;;14.73;11.90;;;666.20;1126.40;;;;;;4954264;29;20042;-66
2022/11/24 10:42:51;;;;;;;18.13;15.23;;;665.70;1100.80;;;;;;4967335;28;20027;-69
2022/11/24 10:45:21;;;;;;;8.65;7.45;;;665.90;1100.80;;;;;;4971779;28;20105;-68
2022/11/24 10:47:47;;;;;;;10.77;9.55;;;665.80;1075.20;;;;;;4974304;28;20026;-66
2022/11/24 10:50:22;;;;;;;6.88;5.60;;;665.80;1100.80;;;;;;4972070;28;20608;-63
2022/11/24 10:53:11;;;;;;;8.52;7.20;;;666.20;1075.20;;;;;;4960568;28;20388;-65
2022/11/24 10:55:55;;;;;;;6.80;5.82;;;666.40;1075.20;;;;;;4972553;28;20552;-69
2022/11/24 10:58:28;;;;;;;11.50;9.13;;;666.40;1075.20;;;;;;4971176;28;20450;-71
2022/11/24 11:00:57;;;;;;;13.25;8.80;;;666.20;1100.80;;;;;;4971560;28;20047;-70
2022/11/24 11:03:30;;;;;;;16.02;12.30;;;666.10;1075.20;;;;;;4971702;28;20106;-68
2022/11/24 11:06:09;;;;;;;7.78;5.68;;;666.00;1075.20;;;;;;4971312;28;20476;-67
2022/11/24 11:08:34;;;;;;;17.67;12.50;;;589.70;1177.60;;;;;;4971189;28;20031;-68
2022/11/24 11:11:19;;;;;;;12.55;8.75;;;564.00;1228.80;;;;;;4970911;28;20057;-68
2022/11/24 11:14:06;;;;;;;17.63;12.43;;;512.80;1331.20;;;;;;4971479;28;20071;-68
2022/11/24 11:16:52;;;;;;;21.02;13.43;;;563.60;1280.00;;;;;;4971349;28;20105;-67
2022/11/24 11:19:41;;;;;;;23.25;14.38;;;589.60;1177.60;;;;;;4971561;28;20045;-67
2022/11/24 11:22:18;;;;;;;17.17;11.15;;;665.70;1075.20;;;;;;4971215;28;20038;-70
2022/11/24 11:24:46;;;;;;;13.98;7.65;;;614.80;1126.40;;;;;;4971595;28;20515;-69
2022/11/24 11:27:19;;;;;;;17.05;10.60;;;614.80;1152.00;;;;;;4971209;28;20035;-67
2022/11/24 11:29:46;;;;;;;25.23;14.52;;;615.10;1100.80;;;;;;4967981;28;20733;-65
2022/11/24 11:32:21;;;;;;;17.40;11.90;;;640.80;1100.80;;;;;;4972904;28;20030;-69
2022/11/24 11:34:52;;;;;;;12.52;8.63;;;640.10;1126.40;;;;;;4973400;28;20023;-69
2022/11/24 11:37:20;;;;;;;70.68;47.65;;;614.50;1177.60;;;;;;4972533;28;20091;-69
2022/11/24 11:39:55;;;;;;;15.60;10.07;;;563.40;1280.00;;;;;;4973281;28;20026;-71
2022/11/24 11:42:34;;;;;;;15.35;10.30;;;563.30;1305.60;;;;;;4974099;28;20034;-67
2022/11/24 11:45:21;;;;;;;20.83;13.93;;;589.10;1203.20;;;;;;4970799;28;20026;-67
2022/11/24 11:48:34;;;;;;;49.35;30.48;;;563.90;1254.40;;;;;;4953763;29;20030;-71
2022/11/24 11:51:09;;;;;;;15.18;11.07;;;564.00;1254.40;;;;;;4965797;28;20047;-71
2022/11/24 11:53:57;;;;;;;20.52;13.52;;;564.00;1254.40;;;;;;4951626;29;20158;-71
2022/11/24 11:56:25;;;;;;;11.48;8.00;;;614.80;1203.20;;;;;;4951761;28;20129;-67
2022/11/24 11:59:22;;;;;;;11.60;8.00;;;615.20;1152.00;;;;;;4955309;28;20094;-69
2022/11/24 12:02:35;;;;;;;10.57;8.45;;;640.40;1100.80;;;;;;4971444;28;20031;-67
2022/11/24 12:05:13;;;;;;;9.52;8.23;;;640.00;1100.80;;;;;;4911162;29;20124;-70
2022/11/24 12:08:24;;;;;;;6.53;4.38;;;614.80;1152.00;;;;;;4900227;29;20379;-70
2022/11/24 12:10:50;;;;;;;7.97;5.13;;;665.60;1100.80;;;;;;4854822;29;20044;-68
2022/11/24 12:13:38;;;;;;;10.23;7.80;;;589.20;1177.60;;;;;;4854847;29;20051;-68
2022/11/24 12:16:44;;;;;;;9.77;6.72;;;563.50;1254.40;;;;;;4855711;29;20041;-69
2022/11/24 12:19:27;;;;;;;8.35;6.10;;;537.70;1305.60;;;;;;4781897;29;20070;-71
2022/11/24 12:22:30;;;;;;;13.65;8.48;;;486.50;1408.00;;;;;;4783517;30;20486;-70
2022/11/24 12:25:02;;;;;;;9.00;6.20;;;512.60;1331.20;;;;;;4713632;30;20040;-67
2022/11/24 12:27:56;;;;;;;7.68;5.88;;;563.50;1228.80;;;;;;4711813;30;19922;-68
2022/11/24 12:30:22;;;;;;;4.97;4.10;;;588.80;1254.40;;;;;;4711326;30;20036;-67
2022/11/24 12:33:15;;;;;;;9.40;4.60;;;615.20;1100.80;;;;;;4715150;30;20072;-67
2022/11/24 12:35:55;;;;;;;7.05;4.50;;;614.40;1126.40;;;;;;4707061;30;20040;-69